Time;durP1;ratioP1;P1;durP2;ratioP2;P2;SDS_P1;SDS_P2;PMS_P1;PMS_P2;Temp;Humidity;BMP_temperature;BMP_pressure;BME280_temperature;BME280_humidity;BME280_pressure;Samples;Min_cycle;Max_cycle;Signal;HPM_P1;HPM_P2
2023/07/20 00:00:47;;;;;;;16.15;10.32;;;;;;;;;;5072133;28;20053;-62
2023/07/20 00:03:18;;;;;;;11.80;9.45;;;;;;;;;;5065167;28;20151;-61
2023/07/20 00:05:45;;;;;;;14.13;10.52;;;;;;;;;;5072212;28;20059;-61
2023/07/20 00:08:12;;;;;;;12.27;9.82;;;;;;;;;;5071743;28;20053;-61
2023/07/20 00:10:39;;;;;;;11.77;10.52;;;;;;;;;;5071865;28;20370;-61
2023/07/20 00:13:06;;;;;;;9.88;8.43;;;;;;;;;;5071659;28;20048;-62
2023/07/20 00:15:32;;;;;;;13.60;10.07;;;;;;;;;;5072167;28;20049;-61
2023/07/20 00:17:59;;;;;;;11.63;9.70;;;;;;;;;;5064828;28;20060;-62
2023/07/20 00:20:27;;;;;;;14.82;9.40;;;;;;;;;;5075620;28;20063;-62
2023/07/20 00:22:54;;;;;;;13.00;9.95;;;;;;;;;;5075535;28;20067;-61
2023/07/20 00:25:21;;;;;;;14.00;10.02;;;;;;;;;;5056851;28;20067;-61
2023/07/20 00:27:48;;;;;;;11.93;9.38;;;;;;;;;;5055517;28;20060;-62
2023/07/20 00:30:15;;;;;;;12.60;10.25;;;;;;;;;;5055374;28;20383;-62
2023/07/20 00:32:42;;;;;;;17.00;10.68;;;;;;;;;;5056704;28;20068;-61
2023/07/20 00:35:09;;;;;;;11.35;10.00;;;;;;;;;;5075127;28;20052;-62
2023/07/20 00:37:38;;;;;;;10.77;8.98;;;;;;;;;;5075360;28;20060;-61
2023/07/20 00:40:07;;;;;;;12.73;9.02;;;;;;;;;;5075175;28;20056;-61
2023/07/20 00:42:33;;;;;;;16.17;10.13;;;;;;;;;;5068684;28;20244;-61
2023/07/20 00:45:00;;;;;;;11.88;8.68;;;;;;;;;;5054757;28;20052;-61
2023/07/20 00:47:28;;;;;;;13.05;9.60;;;;;;;;;;5057644;28;20048;-61
2023/07/20 00:49:54;;;;;;;15.98;9.80;;;;;;;;;;5074967;28;20409;-62
2023/07/20 00:52:22;;;;;;;14.38;10.10;;;;;;;;;;5075007;28;20057;-61
2023/07/20 00:54:52;;;;;;;12.30;9.45;;;;;;;;;;5074423;28;20053;-61
2023/07/20 00:57:19;;;;;;;16.73;10.13;;;;;;;;;;5075010;28;20494;-62
2023/07/20 00:59:46;;;;;;;14.15;8.50;;;;;;;;;;5074810;28;20409;-61
2023/07/20 01:02:13;;;;;;;11.30;8.77;;;;;;;;;;5068803;28;20075;-61
2023/07/20 01:04:40;;;;;;;15.25;9.68;;;;;;;;;;5070261;28;20053;-61
2023/07/20 01:07:10;;;;;;;13.52;8.60;;;;;;;;;;5075092;28;20063;-61
2023/07/20 01:09:40;;;;;;;11.73;8.43;;;;;;;;;;5074827;28;20440;-61
2023/07/20 01:12:11;;;;;;;13.50;10.00;;;;;;;;;;5074264;28;20049;-62
2023/07/20 01:14:38;;;;;;;13.25;9.18;;;;;;;;;;5074593;28;20049;-62
2023/07/20 01:17:05;;;;;;;14.77;9.77;;;;;;;;;;5069012;28;20049;-62
2023/07/20 01:19:32;;;;;;;14.18;9.18;;;;;;;;;;5074814;28;20065;-61
2023/07/20 01:22:01;;;;;;;12.50;9.05;;;;;;;;;;5074116;28;20056;-62
2023/07/20 01:24:45;;;;;;;11.90;9.13;;;;;;;;;;5063068;28;20076;-61
2023/07/20 01:27:27;;;;;;;13.95;8.48;;;;;;;;;;5054033;28;20057;-61
2023/07/20 01:30:04;;;;;;;16.67;11.13;;;;;;;;;;5044343;28;20049;-62
2023/07/20 01:32:32;;;;;;;13.60;10.38;;;;;;;;;;5056880;28;20052;-62
2023/07/20 01:35:00;;;;;;;13.85;8.75;;;;;;;;;;5074206;28;20405;-61
2023/07/20 01:37:29;;;;;;;12.35;8.85;;;;;;;;;;5074023;28;20052;-62
2023/07/20 01:39:56;;;;;;;13.65;10.00;;;;;;;;;;5073531;28;20060;-61
2023/07/20 01:42:23;;;;;;;12.20;8.25;;;;;;;;;;5059125;28;20053;-62
2023/07/20 01:44:51;;;;;;;12.70;8.98;;;;;;;;;;5054191;28;20052;-62
2023/07/20 01:47:18;;;;;;;12.43;9.98;;;;;;;;;;5052756;28;20060;-62
2023/07/20 01:49:46;;;;;;;12.82;9.13;;;;;;;;;;5073856;28;20466;-61
2023/07/20 01:52:13;;;;;;;13.55;10.80;;;;;;;;;;5073525;28;20057;-61
2023/07/20 01:54:40;;;;;;;12.88;11.00;;;;;;;;;;5058735;28;20430;-61
2023/07/20 01:57:06;;;;;;;12.95;9.68;;;;;;;;;;5053611;28;20053;-61
2023/07/20 01:59:33;;;;;;;13.98;10.30;;;;;;;;;;5054109;28;20053;-61
2023/07/20 02:02:00;;;;;;;11.75;9.52;;;;;;;;;;5052308;28;20068;-61
2023/07/20 02:04:27;;;;;;;12.02;9.52;;;;;;;;;;5067870;28;20045;-61
2023/07/20 02:06:55;;;;;;;13.40;10.23;;;;;;;;;;5074047;28;20063;-61
2023/07/20 02:09:22;;;;;;;11.73;9.05;;;;;;;;;;5073705;28;20060;-61
2023/07/20 02:11:50;;;;;;;14.95;9.85;;;;;;;;;;5073826;28;20059;-61
2023/07/20 02:14:16;;;;;;;13.43;10.48;;;;;;;;;;5073591;28;20075;-61
2023/07/20 02:16:43;;;;;;;12.07;10.10;;;;;;;;;;5073629;28;20056;-61
2023/07/20 02:19:10;;;;;;;15.40;11.13;;;;;;;;;;5067689;28;20053;-61
2023/07/20 02:21:38;;;;;;;14.50;10.50;;;;;;;;;;5073422;28;20056;-61
2023/07/20 02:24:07;;;;;;;14.05;10.75;;;;;;;;;;5065052;28;20056;-61
2023/07/20 02:26:33;;;;;;;15.05;10.25;;;;;;;;;;5053315;28;20049;-61
2023/07/20 02:29:00;;;;;;;15.02;11.48;;;;;;;;;;5053281;28;20053;-61
2023/07/20 02:31:27;;;;;;;14.95;10.77;;;;;;;;;;5052573;28;20057;-61
2023/07/20 02:33:54;;;;;;;15.77;11.75;;;;;;;;;;5064810;28;20048;-62
2023/07/20 02:36:21;;;;;;;19.02;11.90;;;;;;;;;;5073252;28;20058;-61
2023/07/20 02:38:47;;;;;;;15.05;11.10;;;;;;;;;;5072801;28;20056;-61
2023/07/20 02:41:16;;;;;;;14.60;11.57;;;;;;;;;;5072670;28;20398;-61
2023/07/20 02:43:41;;;;;;;13.98;11.55;;;;;;;;;;5066956;28;20053;-61
2023/07/20 02:46:08;;;;;;;14.25;11.02;;;;;;;;;;5047456;28;20049;-62
2023/07/20 02:48:35;;;;;;;13.68;11.02;;;;;;;;;;5062044;28;20413;-61
2023/07/20 02:51:02;;;;;;;13.50;11.93;;;;;;;;;;5052907;28;20049;-61
2023/07/20 02:53:29;;;;;;;18.40;12.63;;;;;;;;;;5052327;28;20069;-61
2023/07/20 02:55:55;;;;;;;13.52;11.70;;;;;;;;;;5052861;28;20053;-61
2023/07/20 02:58:24;;;;;;;14.25;10.93;;;;;;;;;;5052274;28;20048;-61
2023/07/20 03:00:51;;;;;;;13.35;11.25;;;;;;;;;;5052777;28;20048;-61
2023/07/20 03:03:17;;;;;;;13.00;10.32;;;;;;;;;;5050510;28;20060;-61
2023/07/20 03:05:44;;;;;;;12.68;10.23;;;;;;;;;;5052293;28;20052;-61
2023/07/20 03:08:11;;;;;;;11.20;9.63;;;;;;;;;;5052714;28;20057;-61
2023/07/20 03:10:41;;;;;;;12.57;9.30;;;;;;;;;;5052308;28;20057;-61
2023/07/20 03:13:08;;;;;;;12.63;10.90;;;;;;;;;;5052463;28;20434;-61
2023/07/20 03:15:36;;;;;;;15.25;9.57;;;;;;;;;;5052269;28;20049;-62
2023/07/20 03:18:04;;;;;;;11.40;9.32;;;;;;;;;;5064337;28;20056;-61
2023/07/20 03:20:30;;;;;;;13.32;10.32;;;;;;;;;;5072389;28;20079;-61
2023/07/20 03:22:57;;;;;;;16.35;11.63;;;;;;;;;;5072180;28;20053;-61
2023/07/20 03:25:24;;;;;;;14.10;12.00;;;;;;;;;;5053411;28;20064;-62
2023/07/20 03:27:51;;;;;;;13.23;10.10;;;;;;;;;;5051136;28;20057;-62
2023/07/20 03:30:18;;;;;;;14.85;11.05;;;;;;;;;;5051933;28;20056;-62
2023/07/20 03:32:46;;;;;;;14.18;10.32;;;;;;;;;;5064669;28;20052;-62
2023/07/20 03:35:12;;;;;;;13.05;9.90;;;;;;;;;;5072180;28;20052;-61
2023/07/20 03:37:39;;;;;;;15.02;11.95;;;;;;;;;;5072271;28;20052;-62
2023/07/20 03:40:07;;;;;;;11.90;9.00;;;;;;;;;;5072557;28;20052;-62
2023/07/20 03:42:34;;;;;;;15.77;9.60;;;;;;;;;;5072205;28;20056;-62
2023/07/20 03:45:02;;;;;;;10.63;8.30;;;;;;;;;;5072217;28;20428;-62
2023/07/20 03:47:29;;;;;;;11.13;8.75;;;;;;;;;;5067076;28;20417;-62
2023/07/20 03:49:57;;;;;;;9.50;6.82;;;;;;;;;;5072287;28;20053;-61
2023/07/20 03:52:24;;;;;;;8.18;6.32;;;;;;;;;;5072230;28;20067;-61
2023/07/20 03:54:52;;;;;;;10.88;7.47;;;;;;;;;;5075246;28;20060;-62
2023/07/20 03:57:18;;;;;;;8.68;7.18;;;;;;;;;;5063997;28;20045;-62
2023/07/20 03:59:46;;;;;;;10.00;7.97;;;;;;;;;;5055974;28;20048;-61
2023/07/20 04:02:13;;;;;;;8.70;6.80;;;;;;;;;;5055225;28;20060;-62
2023/07/20 04:04:39;;;;;;;9.27;7.43;;;;;;;;;;5062326;28;20414;-61
2023/07/20 04:07:08;;;;;;;10.50;8.35;;;;;;;;;;5055690;28;20052;-61
2023/07/20 04:09:34;;;;;;;10.40;8.23;;;;;;;;;;5055907;28;20053;-62
2023/07/20 04:12:01;;;;;;;9.45;6.93;;;;;;;;;;5055996;28;20057;-62
2023/07/20 04:14:28;;;;;;;8.85;7.68;;;;;;;;;;5056173;28;20060;-62
2023/07/20 04:16:55;;;;;;;11.57;7.40;;;;;;;;;;5060539;28;20048;-62
2023/07/20 04:19:22;;;;;;;10.65;8.60;;;;;;;;;;5074863;28;20075;-62
2023/07/20 04:21:48;;;;;;;10.00;8.45;;;;;;;;;;5075727;28;20056;-62
2023/07/20 04:24:17;;;;;;;12.18;9.93;;;;;;;;;;5075174;28;20052;-62
2023/07/20 04:26:43;;;;;;;14.25;11.52;;;;;;;;;;5070716;28;20049;-62
2023/07/20 04:29:10;;;;;;;12.98;9.88;;;;;;;;;;5070040;28;20056;-62
2023/07/20 04:31:37;;;;;;;12.02;9.85;;;;;;;;;;5070657;28;20048;-62
2023/07/20 04:34:04;;;;;;;12.70;11.40;;;;;;;;;;5075091;28;20053;-61
2023/07/20 04:36:31;;;;;;;16.33;13.07;;;;;;;;;;5075619;28;20064;-62
2023/07/20 04:38:57;;;;;;;15.48;12.95;;;;;;;;;;5075375;28;20480;-61
2023/07/20 04:41:26;;;;;;;16.40;12.65;;;;;;;;;;5075298;28;20057;-62
2023/07/20 04:43:53;;;;;;;15.10;12.90;;;;;;;;;;5074896;28;20048;-62
2023/07/20 04:46:21;;;;;;;14.48;13.02;;;;;;;;;;5069477;28;20055;-62
2023/07/20 04:48:47;;;;;;;16.45;14.77;;;;;;;;;;5075478;28;20490;-62
2023/07/20 04:51:14;;;;;;;17.70;15.82;;;;;;;;;;5074851;28;20079;-62
2023/07/20 04:53:41;;;;;;;17.52;13.65;;;;;;;;;;5074571;28;20056;-61
2023/07/20 04:56:09;;;;;;;16.65;14.63;;;;;;;;;;5073010;28;20056;-62
2023/07/20 04:58:37;;;;;;;18.95;15.48;;;;;;;;;;5054663;28;20398;-62
2023/07/20 05:01:04;;;;;;;19.05;17.02;;;;;;;;;;5052669;28;20180;-62
2023/07/20 05:03:31;;;;;;;18.92;16.40;;;;;;;;;;5054493;28;20513;-61
2023/07/20 05:05:58;;;;;;;18.42;16.45;;;;;;;;;;5053723;28;20056;-62
2023/07/20 05:08:24;;;;;;;19.95;17.85;;;;;;;;;;5054517;28;20060;-62
2023/07/20 05:10:51;;;;;;;19.80;17.73;;;;;;;;;;5054518;28;20052;-62
2023/07/20 05:13:18;;;;;;;20.45;18.27;;;;;;;;;;5067137;28;20386;-62
2023/07/20 05:15:46;;;;;;;21.73;17.95;;;;;;;;;;5068379;28;20060;-62
2023/07/20 05:18:13;;;;;;;25.17;21.88;;;;;;;;;;5074248;28;20052;-62
2023/07/20 05:20:40;;;;;;;19.60;17.60;;;;;;;;;;5052765;28;20057;-60
2023/07/20 05:23:07;;;;;;;22.17;19.92;;;;;;;;;;5041316;28;20053;-60
2023/07/20 05:25:33;;;;;;;19.52;17.52;;;;;;;;;;5059305;28;20049;-60
2023/07/20 05:28:00;;;;;;;18.33;16.42;;;;;;;;;;5066743;28;20044;-60
2023/07/20 05:30:29;;;;;;;19.38;17.55;;;;;;;;;;5054273;28;20049;-59
2023/07/20 05:32:57;;;;;;;20.15;18.08;;;;;;;;;;5049459;28;20522;-60
2023/07/20 05:35:24;;;;;;;18.80;16.55;;;;;;;;;;5050539;28;20045;-59
2023/07/20 05:37:50;;;;;;;17.58;15.68;;;;;;;;;;5055715;28;20049;-59
2023/07/20 05:40:19;;;;;;;18.98;17.08;;;;;;;;;;5052093;28;20058;-59
2023/07/20 05:42:47;;;;;;;18.07;16.00;;;;;;;;;;5050945;28;20055;-60
2023/07/20 05:45:15;;;;;;;18.55;16.75;;;;;;;;;;5050170;28;20052;-59
2023/07/20 05:47:42;;;;;;;16.83;15.13;;;;;;;;;;5049729;28;20053;-59
2023/07/20 05:50:11;;;;;;;17.50;15.70;;;;;;;;;;5046893;28;20056;-59
2023/07/20 05:52:38;;;;;;;15.52;13.93;;;;;;;;;;5054890;28;20048;-59
2023/07/20 05:55:06;;;;;;;11.85;10.77;;;;;;;;;;5045130;28;20060;-59
2023/07/20 05:57:35;;;;;;;11.38;10.02;;;;;;;;;;5046871;28;20094;-59
2023/07/20 06:00:02;;;;;;;9.52;8.52;;;;;;;;;;5047193;28;20049;-60
2023/07/20 06:02:29;;;;;;;10.45;9.32;;;;;;;;;;5046114;28;20053;-59
2023/07/20 06:04:56;;;;;;;10.18;8.65;;;;;;;;;;5049804;28;20056;-59
2023/07/20 06:07:24;;;;;;;10.38;9.32;;;;;;;;;;5052699;28;20061;-59
2023/07/20 06:09:51;;;;;;;10.13;9.15;;;;;;;;;;5049431;28;20400;-60
2023/07/20 06:12:18;;;;;;;8.90;8.10;;;;;;;;;;5048735;28;20053;-59
2023/07/20 06:14:45;;;;;;;7.82;7.13;;;;;;;;;;5048278;28;21622;-59
2023/07/20 06:17:12;;;;;;;7.78;6.93;;;;;;;;;;5046145;28;20049;-60
2023/07/20 06:19:38;;;;;;;7.10;6.28;;;;;;;;;;5049896;28;20057;-60
2023/07/20 06:22:05;;;;;;;6.70;5.68;;;;;;;;;;5048625;28;20053;-60
2023/07/20 06:24:34;;;;;;;6.28;5.68;;;;;;;;;;5039171;28;20064;-60
2023/07/20 06:27:00;;;;;;;5.75;5.15;;;;;;;;;;5044252;28;20533;-60
2023/07/20 06:29:27;;;;;;;6.55;5.40;;;;;;;;;;5044817;28;20049;-60
2023/07/20 06:31:54;;;;;;;5.28;4.78;;;;;;;;;;5047410;28;20049;-60
2023/07/20 06:34:21;;;;;;;6.50;4.43;;;;;;;;;;5044202;28;20064;-60
2023/07/20 06:36:48;;;;;;;5.13;4.63;;;;;;;;;;5043382;28;20358;-60
2023/07/20 06:39:15;;;;;;;6.03;5.45;;;;;;;;;;5043008;28;20057;-62
2023/07/20 06:41:43;;;;;;;7.13;6.43;;;;;;;;;;5045738;28;20414;-62
2023/07/20 06:44:10;;;;;;;6.45;5.85;;;;;;;;;;5046087;28;20529;-62
2023/07/20 06:46:37;;;;;;;5.93;5.40;;;;;;;;;;5042339;28;20045;-62
2023/07/20 06:49:06;;;;;;;5.32;4.82;;;;;;;;;;5045488;28;20056;-62
2023/07/20 06:51:33;;;;;;;4.25;3.83;;;;;;;;;;5044243;28;20072;-62
2023/07/20 06:54:00;;;;;;;4.25;3.60;;;;;;;;;;5043330;28;20049;-62
2023/07/20 06:56:27;;;;;;;4.85;3.55;;;;;;;;;;5042428;28;20482;-59
2023/07/20 06:58:55;;;;;;;5.80;4.15;;;;;;;;;;5046506;28;20060;-59
2023/07/20 07:01:22;;;;;;;4.28;3.88;;;;;;;;;;5043060;28;20064;-59
2023/07/20 07:03:49;;;;;;;4.75;4.25;;;;;;;;;;5045876;28;20422;-59
2023/07/20 07:06:15;;;;;;;4.95;4.20;;;;;;;;;;5042071;28;20052;-63
2023/07/20 07:08:44;;;;;;;4.43;3.97;;;;;;;;;;5042891;28;20052;-63
2023/07/20 07:11:11;;;;;;;4.85;3.90;;;;;;;;;;5043626;28;20057;-62
2023/07/20 07:13:38;;;;;;;5.05;4.40;;;;;;;;;;5043513;28;20049;-62
2023/07/20 07:16:06;;;;;;;5.88;4.07;;;;;;;;;;5039243;28;20052;-62
2023/07/20 07:18:33;;;;;;;4.05;3.65;;;;;;;;;;5041965;28;20057;-62
2023/07/20 07:21:00;;;;;;;6.65;3.60;;;;;;;;;;5043696;28;20051;-62
2023/07/20 07:23:26;;;;;;;5.20;3.33;;;;;;;;;;5044826;28;20061;-62
2023/07/20 07:25:53;;;;;;;3.75;2.67;;;;;;;;;;5046385;28;20057;-62
2023/07/20 07:28:20;;;;;;;3.08;2.78;;;;;;;;;;5049625;28;20055;-62
2023/07/20 07:30:47;;;;;;;2.75;2.55;;;;;;;;;;5047953;28;20060;-62
2023/07/20 07:33:15;;;;;;;3.35;2.35;;;;;;;;;;5049693;28;20493;-62
2023/07/20 07:35:42;;;;;;;3.50;2.40;;;;;;;;;;5048229;28;20067;-62
2023/07/20 07:38:09;;;;;;;2.45;2.10;;;;;;;;;;5045917;28;20057;-62
2023/07/20 07:40:35;;;;;;;2.53;2.20;;;;;;;;;;5053266;28;20403;-62
2023/07/20 07:43:03;;;;;;;3.78;2.40;;;;;;;;;;5043972;28;20053;-62
2023/07/20 07:45:30;;;;;;;3.42;2.80;;;;;;;;;;5048357;28;20049;-62
2023/07/20 07:47:56;;;;;;;3.17;2.60;;;;;;;;;;5048853;28;20049;-61
2023/07/20 07:50:25;;;;;;;3.30;3.00;;;;;;;;;;5053452;28;20061;-61
2023/07/20 07:52:51;;;;;;;3.78;2.90;;;;;;;;;;5046651;28;20056;-62
2023/07/20 07:55:18;;;;;;;3.22;2.65;;;;;;;;;;5049766;28;20060;-61
2023/07/20 07:57:47;;;;;;;3.78;2.65;;;;;;;;;;5045489;28;20048;-62
2023/07/20 08:00:15;;;;;;;3.22;2.50;;;;;;;;;;5049558;28;21316;-61
2023/07/20 08:02:42;;;;;;;2.72;2.35;;;;;;;;;;5041724;28;20045;-61
2023/07/20 08:05:09;;;;;;;3.67;2.97;;;;;;;;;;5045391;28;20052;-61
2023/07/20 08:07:37;;;;;;;3.30;3.00;;;;;;;;;;5047628;28;20040;-61
2023/07/20 08:10:05;;;;;;;3.03;2.72;;;;;;;;;;5048328;28;20598;-60
2023/07/20 08:12:31;;;;;;;3.55;3.00;;;;;;;;;;5050324;28;20470;-61
2023/07/20 08:14:58;;;;;;;4.00;3.20;;;;;;;;;;5044750;28;20057;-61
2023/07/20 08:17:25;;;;;;;3.40;3.10;;;;;;;;;;5048002;28;20056;-61
2023/07/20 08:19:52;;;;;;;4.15;3.72;;;;;;;;;;5048470;28;20048;-61
2023/07/20 08:22:19;;;;;;;5.07;3.47;;;;;;;;;;5052987;28;20048;-61
2023/07/20 08:24:47;;;;;;;4.10;3.53;;;;;;;;;;5047882;28;20494;-61
2023/07/20 08:27:14;;;;;;;4.10;3.70;;;;;;;;;;5048167;28;20093;-61
2023/07/20 08:29:41;;;;;;;3.97;3.58;;;;;;;;;;5044328;28;20494;-60
2023/07/20 08:32:08;;;;;;;4.05;3.00;;;;;;;;;;5051652;28;20060;-61
2023/07/20 08:34:35;;;;;;;3.05;2.50;;;;;;;;;;5043709;28;20061;-61
2023/07/20 08:37:01;;;;;;;3.42;2.50;;;;;;;;;;5046795;28;20076;-61
2023/07/20 08:39:28;;;;;;;3.17;2.22;;;;;;;;;;5044173;28;20048;-61
2023/07/20 08:41:57;;;;;;;1.77;1.48;;;;;;;;;;5060770;28;20075;-61
2023/07/20 08:44:25;;;;;;;2.15;1.20;;;;;;;;;;5050356;28;20065;-62
2023/07/20 08:46:52;;;;;;;2.78;1.02;;;;;;;;;;5060059;28;20045;-61
2023/07/20 08:49:19;;;;;;;2.33;1.10;;;;;;;;;;5058881;28;20049;-61
2023/07/20 08:51:47;;;;;;;2.33;1.10;;;;;;;;;;5056054;28;20052;-62
2023/07/20 08:54:14;;;;;;;2.42;1.00;;;;;;;;;;5052829;28;20053;-61
2023/07/20 08:56:41;;;;;;;2.05;0.88;;;;;;;;;;5056819;28;20055;-61
2023/07/20 08:59:10;;;;;;;2.08;1.20;;;;;;;;;;5051084;28;20056;-62
2023/07/20 09:01:38;;;;;;;1.95;1.45;;;;;;;;;;5056922;28;20052;-61
2023/07/20 09:04:05;;;;;;;3.17;1.30;;;;;;;;;;5051667;28;20058;-61
2023/07/20 09:06:34;;;;;;;3.60;1.70;;;;;;;;;;5048392;28;20060;-61
2023/07/20 09:09:01;;;;;;;4.30;1.42;;;;;;;;;;5044136;28;20057;-62
2023/07/20 09:11:28;;;;;;;2.63;1.50;;;;;;;;;;5041247;28;20054;-62
2023/07/20 09:14:03;;;;;;;2.40;1.40;;;;;;;;;;5050763;28;20060;-62
2023/07/20 09:16:32;;;;;;;1.63;1.20;;;;;;;;;;5047553;28;20053;-61
2023/07/20 09:18:58;;;;;;;2.10;1.35;;;;;;;;;;5050160;28;20047;-61
2023/07/20 09:21:29;;;;;;;1.90;1.48;;;;;;;;;;5046821;28;20060;-61
2023/07/20 09:23:57;;;;;;;1.63;1.20;;;;;;;;;;5050948;28;20052;-61
2023/07/20 09:26:24;;;;;;;2.00;1.00;;;;;;;;;;5051149;28;20060;-61
2023/07/20 09:28:52;;;;;;;2.95;1.10;;;;;;;;;;5057197;28;20053;-60
2023/07/20 09:31:20;;;;;;;1.40;0.98;;;;;;;;;;5049033;28;20409;-60
2023/07/20 09:33:48;;;;;;;1.23;0.85;;;;;;;;;;5050674;28;20049;-60
2023/07/20 09:36:15;;;;;;;1.50;0.93;;;;;;;;;;5050774;28;20482;-60
2023/07/20 09:38:42;;;;;;;1.95;0.85;;;;;;;;;;5051014;28;20473;-61
2023/07/20 09:41:13;;;;;;;1.67;0.75;;;;;;;;;;5051420;28;20078;-60
2023/07/20 09:43:40;;;;;;;2.92;0.77;;;;;;;;;;5051984;28;20064;-61
2023/07/20 09:46:07;;;;;;;2.15;1.00;;;;;;;;;;5047308;28;20056;-60
2023/07/20 09:48:34;;;;;;;1.85;0.70;;;;;;;;;;5048509;28;20052;-60
2023/07/20 09:51:02;;;;;;;2.67;0.70;;;;;;;;;;5046701;28;20064;-60
2023/07/20 09:53:29;;;;;;;1.75;0.75;;;;;;;;;;5050518;28;20052;-62
2023/07/20 09:55:56;;;;;;;6.25;2.22;;;;;;;;;;5052111;28;20482;-61
2023/07/20 09:58:23;;;;;;;15.02;4.95;;;;;;;;;;5049997;28;20048;-61
2023/07/20 10:00:52;;;;;;;9.15;2.38;;;;;;;;;;5048232;28;20045;-61
2023/07/20 10:03:18;;;;;;;;;;;;;;;;;;5051452;28;20049;-60
2023/07/20 10:05:49;;;;;;;2.20;0.90;;;;;;;;;;5052683;28;19925;-60
2023/07/20 10:08:18;;;;;;;1.42;0.90;;;;;;;;;;5050772;28;20064;-60
2023/07/20 10:10:45;;;;;;;1.23;0.60;;;;;;;;;;5047679;28;20049;-60
2023/07/20 10:13:17;;;;;;;1.23;0.70;;;;;;;;;;5052129;28;20406;-60
2023/07/20 10:15:46;;;;;;;1.55;0.60;;;;;;;;;;5053906;28;20057;-61
2023/07/20 10:18:15;;;;;;;1.02;0.60;;;;;;;;;;5058155;28;20387;-60
2023/07/20 10:20:43;;;;;;;2.63;0.88;;;;;;;;;;5070697;28;20052;-60
2023/07/20 10:23:10;;;;;;;37.60;6.07;;;;;;;;;;5053478;28;20057;-60
2023/07/20 10:25:41;;;;;;;1.45;0.88;;;;;;;;;;5048769;28;20049;-60
2023/07/20 10:28:08;;;;;;;0.90;0.57;;;;;;;;;;5056813;28;20048;-60
2023/07/20 10:30:35;;;;;;;1.45;0.65;;;;;;;;;;5059831;28;20051;-60
2023/07/20 10:33:03;;;;;;;1.73;0.50;;;;;;;;;;5064096;28;20591;-61
2023/07/20 10:35:30;;;;;;;1.13;0.52;;;;;;;;;;5064213;28;20412;-60
2023/07/20 10:38:01;;;;;;;1.00;0.63;;;;;;;;;;5062102;28;20406;-61
2023/07/20 10:40:30;;;;;;;1.10;0.70;;;;;;;;;;5062254;28;20052;-61
2023/07/20 10:43:03;;;;;;;1.60;0.70;;;;;;;;;;5057983;28;20075;-61
2023/07/20 10:45:50;;;;;;;1.63;0.68;;;;;;;;;;5052796;28;20049;-61
2023/07/20 10:48:19;;;;;;;1.27;0.70;;;;;;;;;;5059309;28;20059;-61
2023/07/20 10:50:46;;;;;;;0.95;0.60;;;;;;;;;;5055952;28;20048;-61
2023/07/20 10:53:14;;;;;;;1.10;0.60;;;;;;;;;;5064421;28;20061;-61
2023/07/20 10:55:41;;;;;;;1.10;0.50;;;;;;;;;;5054573;28;20059;-61
2023/07/20 10:58:11;;;;;;;1.63;0.80;;;;;;;;;;5051167;28;20523;-61
2023/07/20 11:00:38;;;;;;;1.05;0.55;;;;;;;;;;5047411;28;20513;-61
2023/07/20 11:03:05;;;;;;;1.30;0.70;;;;;;;;;;5050242;28;22075;-61
2023/07/20 11:05:36;;;;;;;1.50;0.77;;;;;;;;;;5047002;28;20052;-62
2023/07/20 11:08:04;;;;;;;0.98;0.40;;;;;;;;;;5052908;28;20040;-61
2023/07/20 11:10:31;;;;;;;0.90;0.57;;;;;;;;;;5050773;28;20056;-61
2023/07/20 11:13:16;;;;;;;1.00;0.50;;;;;;;;;;5049260;28;20478;-61
2023/07/20 11:15:48;;;;;;;1.20;0.70;;;;;;;;;;5046125;28;20044;-61
2023/07/20 11:18:15;;;;;;;1.33;0.60;;;;;;;;;;5049005;28;20040;-61
2023/07/20 11:20:42;;;;;;;1.05;0.68;;;;;;;;;;5050036;28;20409;-61
2023/07/20 11:23:09;;;;;;;1.08;0.73;;;;;;;;;;5052664;28;20056;-61
2023/07/20 11:25:40;;;;;;;1.13;0.63;;;;;;;;;;5048235;28;20409;-61
2023/07/20 11:28:10;;;;;;;1.45;0.88;;;;;;;;;;5046318;28;20485;-62
2023/07/20 11:30:37;;;;;;;1.73;0.75;;;;;;;;;;5050808;28;20053;-62
2023/07/20 11:33:05;;;;;;;1.35;0.70;;;;;;;;;;5049892;28;20056;-63
2023/07/20 11:35:36;;;;;;;1.42;0.70;;;;;;;;;;5055008;28;20049;-63
2023/07/20 11:38:03;;;;;;;1.30;0.60;;;;;;;;;;5049245;28;20490;-62
2023/07/20 11:40:30;;;;;;;1.00;0.57;;;;;;;;;;5050963;28;20097;-62
2023/07/20 11:42:57;;;;;;;1.63;0.67;;;;;;;;;;5048637;28;20418;-62
2023/07/20 11:45:23;;;;;;;1.23;0.80;;;;;;;;;;5049974;28;20061;-62
2023/07/20 11:47:50;;;;;;;1.58;0.70;;;;;;;;;;5049953;28;20508;-62
2023/07/20 11:50:18;;;;;;;1.58;0.60;;;;;;;;;;5056441;28;20064;-62
2023/07/20 11:52:45;;;;;;;1.15;0.68;;;;;;;;;;5050723;28;20064;-63
2023/07/20 11:55:12;;;;;;;0.98;0.68;;;;;;;;;;5046363;28;20049;-62
2023/07/20 11:57:39;;;;;;;1.10;0.80;;;;;;;;;;5049824;28;20417;-62
2023/07/20 12:00:11;;;;;;;1.50;0.80;;;;;;;;;;5048099;28;20057;-62
2023/07/20 12:02:39;;;;;;;1.15;0.60;;;;;;;;;;5043020;28;21357;-62
2023/07/20 12:05:06;;;;;;;1.30;0.70;;;;;;;;;;5048622;28;20429;-62
2023/07/20 12:07:36;;;;;;;2.33;0.93;;;;;;;;;;5048863;28;20045;-62
2023/07/20 12:10:07;;;;;;;1.38;0.90;;;;;;;;;;5052450;28;20044;-62
2023/07/20 12:12:34;;;;;;;2.28;0.82;;;;;;;;;;5048029;28;20433;-62
2023/07/20 12:15:14;;;;;;;1.75;0.98;;;;;;;;;;5046262;28;20494;-62
2023/07/20 12:17:42;;;;;;;1.25;0.90;;;;;;;;;;5051219;28;20048;-62
2023/07/20 12:20:10;;;;;;;1.60;0.95;;;;;;;;;;5052744;28;20056;-62
2023/07/20 12:22:41;;;;;;;1.95;0.90;;;;;;;;;;5052507;28;20049;-62
2023/07/20 12:25:08;;;;;;;1.42;0.95;;;;;;;;;;5049107;28;20053;-62
2023/07/20 12:27:37;;;;;;;1.85;1.08;;;;;;;;;;5054421;28;20482;-62
2023/07/20 12:30:04;;;;;;;1.65;1.02;;;;;;;;;;5056629;28;20053;-62
2023/07/20 12:32:31;;;;;;;1.43;0.87;;;;;;;;;;5052643;28;20426;-62
2023/07/20 12:35:00;;;;;;;1.88;1.00;;;;;;;;;;5050772;28;20049;-62
2023/07/20 12:37:27;;;;;;;1.50;1.00;;;;;;;;;;5053956;28;20057;-62
2023/07/20 12:39:55;;;;;;;1.48;0.85;;;;;;;;;;5053563;28;20490;-62
2023/07/20 12:42:22;;;;;;;;;;;;;;;;;;5067575;28;20049;-62
2023/07/20 12:44:49;;;;;;;2.25;1.02;;;;;;;;;;5053381;28;19929;-62
2023/07/20 12:47:16;;;;;;;1.97;1.10;;;;;;;;;;5060038;28;20500;-62
2023/07/20 12:49:45;;;;;;;1.70;0.90;;;;;;;;;;5052398;28;20052;-62
2023/07/20 12:52:13;;;;;;;1.50;0.90;;;;;;;;;;5059585;28;20056;-61
2023/07/20 12:54:40;;;;;;;2.13;1.17;;;;;;;;;;5048522;28;20070;-61
2023/07/20 12:57:08;;;;;;;1.70;1.05;;;;;;;;;;5052644;28;20052;-61
2023/07/20 12:59:35;;;;;;;1.30;1.05;;;;;;;;;;5054466;28;20044;-61
2023/07/20 13:02:02;;;;;;;1.50;1.10;;;;;;;;;;5067028;28;20047;-61
2023/07/20 13:04:30;;;;;;;1.10;0.80;;;;;;;;;;5053479;28;20409;-61
2023/07/20 13:06:58;;;;;;;2.55;1.00;;;;;;;;;;5050616;28;20049;-61
2023/07/20 13:09:24;;;;;;;;;;;;;;;;;;5050506;28;20049;-61
2023/07/20 13:11:52;;;;;;;2.08;1.10;;;;;;;;;;5051200;28;20366;-61
2023/07/20 13:14:20;;;;;;;1.67;0.80;;;;;;;;;;5055874;28;20409;-61
2023/07/20 13:16:47;;;;;;;1.60;1.00;;;;;;;;;;5055443;28;20052;-61
2023/07/20 13:19:14;;;;;;;2.85;1.17;;;;;;;;;;5059286;28;20053;-61
2023/07/20 13:21:40;;;;;;;1.30;1.00;;;;;;;;;;5051797;28;20064;-61
2023/07/20 13:24:07;;;;;;;2.03;1.10;;;;;;;;;;5057968;28;20060;-61
2023/07/20 13:26:34;;;;;;;2.50;1.00;;;;;;;;;;5055815;28;20048;-61
2023/07/20 13:29:01;;;;;;;2.28;1.00;;;;;;;;;;5054590;28;20430;-61
2023/07/20 13:31:29;;;;;;;2.00;0.88;;;;;;;;;;5050068;28;20056;-61
2023/07/20 13:33:56;;;;;;;;;;;;;;;;;;5056912;28;20064;-61
2023/07/20 13:36:23;;;;;;;1.13;0.80;;;;;;;;;;5049437;28;20054;-61
2023/07/20 13:38:49;;;;;;;1.65;1.08;;;;;;;;;;5054611;28;20048;-61
2023/07/20 13:41:17;;;;;;;1.77;1.10;;;;;;;;;;5051277;28;20049;-61
2023/07/20 13:43:44;;;;;;;2.05;1.00;;;;;;;;;;5055050;28;20053;-61
2023/07/20 13:46:10;;;;;;;1.40;0.90;;;;;;;;;;5056310;28;20076;-61
2023/07/20 13:48:38;;;;;;;2.08;0.75;;;;;;;;;;5054796;28;20045;-62
2023/07/20 13:51:05;;;;;;;1.55;0.70;;;;;;;;;;5050483;28;20391;-62
2023/07/20 13:53:32;;;;;;;1.20;0.80;;;;;;;;;;5045068;28;20063;-62
2023/07/20 13:55:59;;;;;;;1.88;0.90;;;;;;;;;;5051638;28;20052;-62
2023/07/20 13:58:26;;;;;;;1.05;0.70;;;;;;;;;;5050793;28;20059;-62
2023/07/20 14:00:53;;;;;;;1.40;0.80;;;;;;;;;;5049599;28;20059;-62
2023/07/20 14:03:19;;;;;;;1.45;0.80;;;;;;;;;;5050195;28;20053;-62
2023/07/20 14:05:48;;;;;;;1.73;0.93;;;;;;;;;;5051532;28;20049;-61
2023/07/20 14:08:15;;;;;;;1.35;1.00;;;;;;;;;;5051128;28;20052;-62
2023/07/20 14:10:42;;;;;;;1.95;0.90;;;;;;;;;;5058136;28;20393;-61
2023/07/20 14:13:09;;;;;;;2.60;0.98;;;;;;;;;;5049843;28;20064;-61
2023/07/20 14:15:42;;;;;;;1.83;1.25;;;;;;;;;;5052507;28;20478;-62
2023/07/20 14:18:08;;;;;;;2.15;0.80;;;;;;;;;;5050536;28;20408;-62
2023/07/20 14:20:35;;;;;;;2.13;1.10;;;;;;;;;;5055890;28;20060;-61
2023/07/20 14:23:03;;;;;;;1.75;0.85;;;;;;;;;;5046340;28;20082;-61
2023/07/20 14:25:32;;;;;;;2.90;0.90;;;;;;;;;;5052044;28;20383;-61
2023/07/20 14:27:59;;;;;;;1.35;0.80;;;;;;;;;;5050659;28;20479;-61
2023/07/20 14:30:26;;;;;;;3.35;1.00;;;;;;;;;;5047837;28;20486;-62
2023/07/20 14:32:53;;;;;;;2.25;1.00;;;;;;;;;;5050316;28;20057;-62
2023/07/20 14:35:19;;;;;;;3.25;1.02;;;;;;;;;;5048905;28;20060;-62
2023/07/20 14:37:46;;;;;;;1.40;1.00;;;;;;;;;;5042246;28;20049;-61